createdAt,value
2022-11-02T00:02:17.599Z,1.92
2022-11-02T00:04:44.389Z,1.58
2022-11-02T00:07:11.119Z,2.28
2022-11-02T00:09:37.999Z,1.95
2022-11-02T00:12:05.144Z,2.28
2022-11-02T00:14:31.763Z,2.20
2022-11-02T00:16:58.485Z,1.92
2022-11-02T00:19:25.127Z,1.85
2022-11-02T00:21:51.853Z,2.55
2022-11-02T00:24:18.628Z,2.60
2022-11-02T00:26:45.290Z,2.45
2022-11-02T00:29:11.966Z,2.08
2022-11-02T00:31:38.608Z,2.17
2022-11-02T00:34:05.234Z,1.95
2022-11-02T00:36:31.966Z,2.30
2022-11-02T00:38:58.584Z,1.98
2022-11-02T00:41:25.199Z,1.90
2022-11-02T00:43:51.875Z,2.03
2022-11-02T00:46:18.522Z,1.90
2022-11-02T00:48:45.122Z,2.00
2022-11-02T00:51:11.748Z,2.42
2022-11-02T00:53:38.525Z,2.00
2022-11-02T00:56:05.598Z,1.70
2022-11-02T00:58:32.260Z,2.03
2022-11-02T01:00:58.983Z,1.92
2022-11-02T01:03:25.711Z,2.58
2022-11-02T01:05:52.362Z,2.20
2022-11-02T01:08:18.996Z,1.98
2022-11-02T01:10:48.211Z,2.15
2022-11-02T01:13:15.334Z,2.28
2022-11-02T01:15:43.095Z,2.05
2022-11-02T01:18:09.724Z,2.88
2022-11-02T01:20:36.366Z,2.40
2022-11-02T01:23:03.104Z,2.40
2022-11-02T01:25:29.767Z,2.08
2022-11-02T01:27:56.817Z,2.22
2022-11-02T01:30:23.503Z,2.40
2022-11-02T01:32:50.143Z,2.10
2022-11-02T01:35:16.931Z,2.13
2022-11-02T01:37:43.564Z,3.80
2022-11-02T01:40:11.540Z,2.67
2022-11-02T01:42:38.302Z,2.33
2022-11-02T01:45:05.363Z,2.38
2022-11-02T01:47:38.186Z,2.47
2022-11-02T01:50:10.168Z,2.60
2022-11-02T01:55:19.734Z,2.00
2022-11-02T01:58:01.712Z,1.67
2022-11-02T02:00:28.883Z,2.00
2022-11-02T02:03:25.452Z,1.95
2022-11-02T02:06:08.753Z,2.42
2022-11-02T02:08:40.735Z,2.63
2022-11-02T02:13:59.574Z,2.35
2022-11-02T02:16:57.128Z,2.58
2022-11-02T02:19:44.844Z,2.30
2022-11-02T02:22:35.850Z,2.75
2022-11-02T02:25:11.405Z,2.00
2022-11-02T02:28:06.683Z,2.60
2022-11-02T02:30:40.379Z,2.40
2022-11-02T02:33:13.528Z,2.20
2022-11-02T02:35:42.337Z,2.67
2022-11-02T02:38:14.452Z,2.47
2022-11-02T02:40:58.556Z,2.65
2022-11-02T02:43:34.312Z,2.13
2022-11-02T02:46:15.612Z,2.17
2022-11-02T02:48:45.535Z,2.23
2022-11-02T02:51:18.415Z,2.85
2022-11-02T02:53:49.399Z,2.05
2022-11-02T02:56:19.833Z,3.22
2022-11-02T02:58:52.711Z,2.00
2022-11-02T03:01:20.127Z,2.80
2022-11-02T03:03:47.499Z,1.88
2022-11-02T03:06:22.842Z,2.85
2022-11-02T03:09:02.920Z,2.67
2022-11-02T03:11:30.738Z,2.72
2022-11-02T03:14:15.236Z,2.83
2022-11-02T03:16:57.082Z,2.70
2022-11-02T03:19:38.858Z,2.22
2022-11-02T03:22:11.955Z,2.08
2022-11-02T03:25:10.644Z,2.33
2022-11-02T03:27:50.601Z,2.63
2022-11-02T03:30:23.063Z,2.35
2022-11-02T03:33:06.286Z,3.15
2022-11-02T03:35:51.316Z,2.95
2022-11-02T03:38:43.851Z,2.35
2022-11-02T03:41:11.542Z,2.90
2022-11-02T03:43:39.715Z,2.70
2022-11-02T03:46:09.888Z,2.00
2022-11-02T03:48:41.815Z,2.50
2022-11-02T03:54:02.885Z,2.40
2022-11-02T03:56:35.834Z,2.55
2022-11-02T03:59:02.900Z,3.22
2022-11-02T04:01:30.698Z,2.50
2022-11-02T04:03:57.628Z,2.33
2022-11-02T04:06:25.588Z,2.60
2022-11-02T04:08:52.501Z,2.22
2022-11-02T04:11:37.755Z,2.22
2022-11-02T04:14:23.592Z,2.45
2022-11-02T04:16:50.286Z,2.58
2022-11-02T04:19:28.867Z,2.47
2022-11-02T04:22:19.680Z,2.80
2022-11-02T04:25:04.876Z,2.20
2022-11-02T04:27:33.755Z,2.65
2022-11-02T04:30:00.381Z,2.75
2022-11-02T04:32:45.855Z,3.53
2022-11-02T04:35:12.575Z,3.38
2022-11-02T04:38:05.329Z,2.92
2022-11-02T04:40:32.104Z,2.70
2022-11-02T04:42:58.847Z,2.63
2022-11-02T04:45:25.482Z,2.58
2022-11-02T04:47:52.193Z,2.65
2022-11-02T04:50:19.549Z,2.47
2022-11-02T04:52:46.242Z,2.83
2022-11-02T04:55:12.894Z,2.30
2022-11-02T04:57:44.109Z,2.83
2022-11-02T05:00:11.403Z,3.35
2022-11-02T05:02:38.321Z,2.60
2022-11-02T05:05:06.183Z,2.83
2022-11-02T05:07:33.473Z,2.20
2022-11-02T05:10:00.109Z,2.53
2022-11-02T05:12:29.294Z,2.95
2022-11-02T05:14:56.169Z,2.97
2022-11-02T05:17:22.883Z,2.92
2022-11-02T05:19:49.495Z,2.42
2022-11-02T05:22:16.200Z,2.47
2022-11-02T05:24:42.938Z,2.28
2022-11-02T05:27:10.679Z,2.67
2022-11-02T05:29:37.322Z,2.65
2022-11-02T05:32:04.372Z,2.78
2022-11-02T05:34:31.016Z,2.22
2022-11-02T05:36:57.669Z,2.88
2022-11-02T05:39:24.402Z,2.97
2022-11-02T05:41:51.077Z,2.17
2022-11-02T05:44:17.753Z,2.55
2022-11-02T05:46:44.412Z,3.70
2022-11-02T05:49:11.045Z,2.20
2022-11-02T05:51:37.809Z,2.58
2022-11-02T05:54:04.703Z,2.42
2022-11-02T05:56:31.371Z,2.45
2022-11-02T05:58:58.126Z,2.38
2022-11-02T06:01:24.872Z,2.80
2022-11-02T06:03:53.780Z,2.83
2022-11-02T06:06:21.237Z,2.40
2022-11-02T06:08:48.122Z,2.08
2022-11-02T06:11:15.128Z,2.90
2022-11-02T06:13:42.127Z,2.85
2022-11-02T06:16:10.811Z,2.83
2022-11-02T06:18:38.719Z,3.25
2022-11-02T06:21:05.897Z,3.15
2022-11-02T06:23:32.573Z,3.00
2022-11-02T06:26:00.062Z,3.45
2022-11-02T06:28:27.371Z,2.70
2022-11-02T06:30:54.284Z,2.78
2022-11-02T06:33:21.785Z,2.55
2022-11-02T06:35:50.983Z,2.53
2022-11-02T06:38:18.093Z,2.25
2022-11-02T06:40:52.931Z,2.53
2022-11-02T06:43:19.890Z,2.78
2022-11-02T06:45:46.914Z,2.55
2022-11-02T06:48:13.948Z,2.60
2022-11-02T06:50:40.626Z,2.90
2022-11-02T06:53:07.979Z,2.38
2022-11-02T06:55:34.978Z,2.03
2022-11-02T06:58:02.964Z,2.42
2022-11-02T07:00:30.357Z,2.78
2022-11-02T07:03:03.700Z,2.47
2022-11-02T07:05:30.653Z,2.60
2022-11-02T07:07:57.593Z,3.03
2022-11-02T07:10:24.781Z,3.15
2022-11-02T07:12:56.048Z,2.83
2022-11-02T07:15:24.649Z,3.13
2022-11-02T07:17:51.754Z,3.28
2022-11-02T07:20:19.257Z,2.95
2022-11-02T07:22:57.177Z,2.47
2022-11-02T07:25:24.719Z,2.45
2022-11-02T07:27:51.436Z,2.40
2022-11-02T07:30:18.253Z,2.67
2022-11-02T07:32:46.214Z,3.67
2022-11-02T07:35:14.459Z,2.55
2022-11-02T07:37:41.899Z,2.85
2022-11-02T07:40:10.605Z,2.70
2022-11-02T07:42:44.384Z,2.63
2022-11-02T07:45:11.467Z,2.95
2022-11-02T07:47:45.336Z,2.95
2022-11-02T07:50:20.132Z,2.80
2022-11-02T07:52:56.596Z,2.58
2022-11-02T07:55:28.786Z,2.60
2022-11-02T07:58:02.946Z,2.75
2022-11-02T08:00:32.532Z,3.38
2022-11-02T08:03:00.983Z,2.45
2022-11-02T08:05:29.095Z,2.88
2022-11-02T08:08:13.817Z,2.42
2022-11-02T08:10:41.624Z,2.03
2022-11-02T08:13:14.379Z,2.45
2022-11-02T08:15:41.047Z,2.28
2022-11-02T08:18:16.359Z,2.53
2022-11-02T08:20:43.228Z,2.25
2022-11-02T08:23:11.166Z,2.45
2022-11-02T08:25:39.042Z,2.58
2022-11-02T08:28:08.193Z,2.58
2022-11-02T08:30:35.066Z,1.98
2022-11-02T08:33:07.410Z,2.00
2022-11-02T08:35:34.887Z,2.17
2022-11-02T08:38:03.407Z,2.60
2022-11-02T08:40:30.459Z,2.28
2022-11-02T08:42:58.910Z,2.80
2022-11-02T08:45:35.127Z,2.42
2022-11-02T08:48:10.092Z,2.50
2022-11-02T08:50:37.167Z,2.40
2022-11-02T08:53:04.515Z,2.40
2022-11-02T08:55:31.464Z,2.08
2022-11-02T08:57:59.846Z,2.60
2022-11-02T09:00:30.424Z,2.17
2022-11-02T09:03:10.058Z,1.98
2022-11-02T09:05:43.362Z,1.80
2022-11-02T09:08:13.423Z,2.63
2022-11-02T09:10:40.542Z,2.25
2022-11-02T09:13:09.978Z,1.98
2022-11-02T09:15:38.142Z,2.00
2022-11-02T09:18:08.830Z,2.00
2022-11-02T09:20:36.635Z,2.83
2022-11-02T09:23:03.800Z,2.60
2022-11-02T09:25:30.575Z,2.15
2022-11-02T09:27:58.134Z,2.28
2022-11-02T09:30:26.370Z,1.98
2022-11-02T09:33:00.845Z,2.17
2022-11-02T09:35:30.826Z,1.95
2022-11-02T09:37:57.734Z,2.00
2022-11-02T09:40:30.206Z,2.08
2022-11-02T09:43:13.561Z,1.60
2022-11-02T09:46:00.859Z,1.67
2022-11-02T09:48:36.245Z,2.13
2022-11-02T09:51:17.810Z,1.73
2022-11-02T09:54:02.556Z,1.73
2022-11-02T09:56:31.369Z,1.70
2022-11-02T09:59:03.754Z,1.50
2022-11-02T10:02:05.757Z,2.03
2022-11-02T10:04:53.432Z,1.60
2022-11-02T10:07:41.783Z,1.50
2022-11-02T10:10:34.399Z,1.98
2022-11-02T10:13:11.088Z,2.05
2022-11-02T10:15:43.832Z,2.70
2022-11-02T10:18:21.898Z,1.67
2022-11-02T10:20:56.639Z,2.20
2022-11-02T10:23:34.517Z,1.80
2022-11-02T10:26:02.448Z,2.53
2022-11-02T10:28:36.559Z,1.25
2022-11-02T10:31:04.193Z,1.50
2022-11-02T10:33:31.534Z,1.48
2022-11-02T10:36:36.966Z,1.95
2022-11-02T10:39:16.034Z,1.92
2022-11-02T10:41:54.457Z,1.73
2022-11-02T10:44:51.173Z,1.80
2022-11-02T10:47:19.972Z,1.40
2022-11-02T10:49:57.658Z,1.48
2022-11-02T10:52:24.846Z,2.33
2022-11-02T10:54:53.215Z,1.63
2022-11-02T10:57:24.463Z,2.00
2022-11-02T11:00:23.006Z,1.90
2022-11-02T11:03:07.471Z,1.55
2022-11-02T11:05:43.573Z,1.92
2022-11-02T11:08:33.949Z,1.98
2022-11-02T11:11:35.665Z,1.90
2022-11-02T11:20:04.423Z,1.73
2022-11-02T11:22:37.792Z,2.65
2022-11-02T11:25:13.641Z,2.10
2022-11-02T11:27:48.871Z,1.60
2022-11-02T11:30:59.535Z,1.40
2022-11-02T11:33:21.162Z,1.60
2022-11-02T11:35:50.559Z,1.40
2022-11-02T11:38:21.209Z,2.15
2022-11-02T11:40:53.895Z,2.70
2022-11-02T11:43:23.620Z,4.28
2022-11-02T11:46:05.313Z,5.72
2022-11-02T11:48:36.533Z,3.30
2022-11-02T11:51:04.649Z,1.67
2022-11-02T11:53:31.863Z,1.33
2022-11-02T11:56:00.584Z,1.35
2022-11-02T11:58:31.703Z,2.35
2022-11-02T12:01:10.321Z,1.30
2022-11-02T12:03:55.582Z,1.75
2022-11-02T12:06:44.338Z,1.77
2022-11-02T12:09:26.842Z,1.83
2022-11-02T12:12:06.840Z,1.30
2022-11-02T12:14:54.909Z,1.42
2022-11-02T12:17:39.596Z,1.70
2022-11-02T12:20:39.894Z,1.20
2022-11-02T12:23:15.716Z,1.48
2022-11-02T12:26:04.933Z,1.70
2022-11-02T12:28:50.027Z,1.88
2022-11-02T12:31:33.044Z,1.63
2022-11-02T12:34:18.510Z,1.50
2022-11-02T12:37:40.323Z,2.30
2022-11-02T12:40:36.003Z,1.45
2022-11-02T12:43:11.734Z,1.67
2022-11-02T12:46:02.862Z,2.10
2022-11-02T12:48:51.499Z,1.98
2022-11-02T12:51:23.437Z,1.70
2022-11-02T12:56:48.505Z,1.38
2022-11-02T12:59:22.345Z,1.67
2022-11-02T13:01:52.866Z,1.65
2022-11-02T13:04:40.250Z,1.50
2022-11-02T13:07:14.311Z,1.88
2022-11-02T13:10:08.099Z,1.55
2022-11-02T13:12:39.018Z,1.55
2022-11-02T13:15:11.929Z,2.00
2022-11-02T13:17:49.256Z,1.80
2022-11-02T13:20:26.175Z,1.83
2022-11-02T13:23:26.323Z,2.83
2022-11-02T13:25:58.686Z,1.70
2022-11-02T13:28:39.392Z,1.98
2022-11-02T13:31:12.942Z,2.10
2022-11-02T13:33:49.584Z,1.75
2022-11-02T13:36:16.463Z,2.30
2022-11-02T13:38:52.033Z,1.88
2022-11-02T13:41:32.092Z,1.85
2022-11-02T13:44:36.040Z,1.70
2022-11-02T13:47:10.886Z,1.70
2022-11-02T13:49:49.641Z,1.45
2022-11-02T13:52:21.928Z,2.90
2022-11-02T13:57:57.812Z,1.90
2022-11-02T14:00:28.416Z,1.60
2022-11-02T14:03:06.945Z,1.50
2022-11-02T14:05:41.123Z,2.10
2022-11-02T14:08:20.256Z,2.08
2022-11-02T14:11:03.855Z,2.08
2022-11-02T14:13:52.219Z,1.48
2022-11-02T14:16:50.207Z,1.50
2022-11-02T14:19:32.214Z,2.28
2022-11-02T14:21:58.814Z,1.63
2022-11-02T14:24:34.726Z,1.90
2022-11-02T14:27:19.046Z,2.03
2022-11-02T14:29:45.648Z,2.50
2022-11-02T14:32:21.291Z,2.22
2022-11-02T14:35:04.286Z,1.98
2022-11-02T14:37:59.426Z,1.92
2022-11-02T14:40:51.171Z,1.98
2022-11-02T14:44:09.181Z,1.52
2022-11-02T14:46:46.981Z,1.67
2022-11-02T14:49:29.913Z,1.35
2022-11-02T14:52:05.065Z,1.45
2022-11-02T14:54:34.888Z,1.42
2022-11-02T14:57:06.230Z,1.98
2022-11-02T14:59:41.946Z,1.90
2022-11-02T15:02:30.111Z,1.83
2022-11-02T15:05:00.465Z,2.10
2022-11-02T15:07:41.271Z,2.33
2022-11-02T15:10:30.518Z,2.03
2022-11-02T15:13:19.151Z,2.40
2022-11-02T15:15:52.869Z,1.80
2022-11-02T15:18:31.655Z,2.20
2022-11-02T15:21:10.431Z,1.75
2022-11-02T15:23:55.632Z,2.45
2022-11-02T15:26:39.229Z,1.98
2022-11-02T15:29:31.939Z,2.22
2022-11-02T15:32:00.482Z,2.60
2022-11-02T15:34:48.870Z,2.78
2022-11-02T15:37:24.764Z,5.57
2022-11-02T15:39:53.950Z,4.13
2022-11-02T15:42:44.522Z,2.47
2022-11-02T15:45:42.275Z,2.95
2022-11-02T15:48:20.707Z,2.38
2022-11-02T15:51:06.293Z,2.72
2022-11-02T15:53:44.990Z,2.75
2022-11-02T15:56:17.853Z,2.30
2022-11-02T15:59:22.090Z,2.40
2022-11-02T16:02:11.204Z,2.33
2022-11-02T16:04:41.319Z,4.07
2022-11-02T16:07:09.130Z,4.50
2022-11-02T16:09:39.417Z,3.70
2022-11-02T16:12:22.181Z,3.80
2022-11-02T16:15:05.772Z,3.58
2022-11-02T16:17:32.423Z,3.85
2022-11-02T16:20:26.102Z,4.40
2022-11-02T16:22:57.266Z,3.20
2022-11-02T16:25:42.146Z,2.92
2022-11-02T16:28:25.262Z,2.00
2022-11-02T16:31:22.385Z,2.22
2022-11-02T16:33:52.134Z,2.17
2022-11-02T16:36:22.690Z,2.67
2022-11-02T16:38:59.388Z,4.10
2022-11-02T16:41:28.076Z,3.78
2022-11-02T16:43:56.270Z,5.40
2022-11-02T16:46:48.455Z,3.22
2022-11-02T16:49:18.767Z,4.30
2022-11-02T16:51:56.630Z,5.07
2022-11-02T16:54:26.504Z,4.53
2022-11-02T16:56:54.207Z,3.28
2022-11-02T16:59:21.443Z,3.00
2022-11-02T17:01:48.464Z,3.58
2022-11-02T17:04:19.460Z,5.18
2022-11-02T17:06:47.832Z,12.65
2022-11-02T17:09:25.519Z,5.30
2022-11-02T17:11:55.982Z,3.60
2022-11-02T17:14:23.900Z,5.35
2022-11-02T17:17:26.835Z,8.07
2022-11-02T17:20:11.659Z,8.07
2022-11-02T17:22:59.990Z,6.13
2022-11-02T17:25:31.180Z,4.88
2022-11-02T17:27:59.885Z,5.13
2022-11-02T17:30:35.543Z,4.22
2022-11-02T17:33:13.786Z,5.68
2022-11-02T17:35:48.941Z,4.10
2022-11-02T17:38:17.369Z,4.15
2022-11-02T17:40:44.233Z,3.53
2022-11-02T17:43:10.869Z,3.75
2022-11-02T17:45:39.071Z,7.50
2022-11-02T17:48:10.928Z,8.90
2022-11-02T17:50:39.536Z,6.38
2022-11-02T17:53:06.863Z,4.35
2022-11-02T17:55:34.909Z,4.90
2022-11-02T17:58:01.619Z,5.22
2022-11-02T18:00:28.988Z,4.50
2022-11-02T18:02:58.102Z,4.47
2022-11-02T18:05:30.726Z,5.32
2022-11-02T18:07:58.899Z,4.70
2022-11-02T18:10:30.580Z,5.05
2022-11-02T18:12:57.541Z,5.82
2022-11-02T18:15:26.679Z,5.40
2022-11-02T18:17:53.411Z,6.25
2022-11-02T18:20:21.467Z,5.88
2022-11-02T18:22:48.200Z,6.13
2022-11-02T18:25:17.575Z,6.40
2022-11-02T18:27:45.408Z,5.30
2022-11-02T18:30:14.947Z,5.50
2022-11-02T18:32:43.578Z,5.40
2022-11-02T18:35:14.656Z,20.50
2022-11-02T18:37:41.906Z,12.00
2022-11-02T18:40:11.596Z,12.63
2022-11-02T18:42:42.243Z,10.93
2022-11-02T18:45:10.840Z,9.30
2022-11-02T18:47:39.724Z,7.93
2022-11-02T18:50:07.596Z,7.22
2022-11-02T18:52:34.417Z,6.53
2022-11-02T18:55:05.144Z,7.07
2022-11-02T18:57:32.733Z,6.20
2022-11-02T19:00:03.378Z,7.22
2022-11-02T19:02:30.196Z,6.55
2022-11-02T19:04:57.146Z,7.07
2022-11-02T19:07:42.752Z,6.70
2022-11-02T19:10:10.220Z,6.18
2022-11-02T19:12:36.932Z,6.85
2022-11-02T19:15:04.493Z,7.03
2022-11-02T19:17:31.399Z,6.65
2022-11-02T19:19:58.125Z,6.88
2022-11-02T19:22:26.122Z,7.07
2022-11-02T19:24:53.049Z,7.35
2022-11-02T19:27:22.433Z,6.93
2022-11-02T19:29:52.630Z,9.45
2022-11-02T19:32:20.192Z,8.30
2022-11-02T19:34:47.108Z,9.45
2022-11-02T19:37:14.031Z,7.10
2022-11-02T19:39:40.822Z,7.85
2022-11-02T19:42:07.673Z,7.72
2022-11-02T19:44:38.376Z,7.68
2022-11-02T19:47:09.100Z,6.80
2022-11-02T19:49:35.783Z,8.30
2022-11-02T19:52:02.495Z,8.70
2022-11-02T19:54:29.180Z,8.90
2022-11-02T19:56:55.963Z,7.90
2022-11-02T19:59:22.668Z,8.10
2022-11-02T20:01:50.697Z,8.15
2022-11-02T20:04:17.746Z,10.50
2022-11-02T20:06:44.846Z,15.10
2022-11-02T20:09:17.089Z,12.10
2022-11-02T20:11:45.336Z,10.73
2022-11-02T20:14:13.669Z,9.95
2022-11-02T20:16:40.684Z,12.95
2022-11-02T20:19:08.908Z,15.30
2022-11-02T20:21:41.598Z,15.20
2022-11-02T20:24:10.341Z,12.68
2022-11-02T20:26:38.687Z,11.00
2022-11-02T20:29:06.378Z,10.32
2022-11-02T20:31:42.126Z,9.02
2022-11-02T20:34:09.204Z,9.85
2022-11-02T20:36:36.046Z,12.20
2022-11-02T20:39:04.817Z,10.48
2022-11-02T20:41:31.650Z,10.32
2022-11-02T20:43:58.375Z,10.35
2022-11-02T20:46:45.276Z,11.77
2022-11-02T20:49:21.832Z,11.43
2022-11-02T20:51:50.947Z,11.25
2022-11-02T20:54:19.382Z,19.38
2022-11-02T20:56:46.617Z,15.13
2022-11-02T20:59:13.330Z,11.70
2022-11-02T21:01:40.298Z,12.82
2022-11-02T21:04:07.428Z,12.60
2022-11-02T21:06:34.299Z,11.65
2022-11-02T21:09:01.059Z,11.43
2022-11-02T21:11:46.545Z,12.30
2022-11-02T21:14:13.192Z,13.43
2022-11-02T21:16:39.832Z,14.00
2022-11-02T21:19:06.603Z,14.45
2022-11-02T21:21:33.642Z,12.23
2022-11-02T21:24:02.912Z,10.50
2022-11-02T21:26:29.544Z,15.15
2022-11-02T21:28:56.193Z,12.38
2022-11-02T21:31:22.905Z,12.90
2022-11-02T21:33:50.002Z,9.02
2022-11-02T21:36:17.709Z,12.13
2022-11-02T21:38:45.103Z,10.73
2022-11-02T21:41:19.546Z,8.90
2022-11-02T21:43:46.193Z,10.68
2022-11-02T21:46:12.984Z,10.65
2022-11-02T21:48:39.734Z,10.57
2022-11-02T21:51:14.622Z,10.05
2022-11-02T21:53:43.583Z,11.63
2022-11-02T21:56:13.011Z,12.23
2022-11-02T21:58:44.688Z,12.32
2022-11-02T22:01:40.548Z,11.55
2022-11-02T22:04:08.154Z,11.27
2022-11-02T22:06:37.418Z,10.52
2022-11-02T22:09:06.238Z,9.20
2022-11-02T22:11:33.214Z,10.40
2022-11-02T22:14:02.877Z,9.75
2022-11-02T22:16:43.404Z,10.77
2022-11-02T22:19:12.457Z,9.45
2022-11-02T22:21:44.302Z,10.80
2022-11-02T22:24:11.995Z,11.75
2022-11-02T22:26:42.043Z,11.10
2022-11-02T22:29:09.039Z,10.25
2022-11-02T22:31:38.896Z,11.00
2022-11-02T22:34:07.872Z,8.30
2022-11-02T22:36:35.579Z,8.73
2022-11-02T22:39:04.160Z,8.85
2022-11-02T22:41:42.052Z,8.70
2022-11-02T22:44:08.677Z,9.95
2022-11-02T22:46:42.213Z,8.27
2022-11-02T22:49:10.919Z,9.90
2022-11-02T22:51:40.562Z,8.77
2022-11-02T22:54:09.914Z,10.20
2022-11-02T22:56:36.550Z,10.63
2022-11-02T22:59:04.502Z,8.50
2022-11-02T23:01:32.208Z,9.40
2022-11-02T23:03:59.294Z,8.63
2022-11-02T23:06:26.046Z,8.50
2022-11-02T23:08:54.365Z,7.30
2022-11-02T23:11:25.033Z,6.60
2022-11-02T23:13:54.018Z,5.70
2022-11-02T23:16:29.347Z,5.97
2022-11-02T23:19:27.277Z,5.93
2022-11-02T23:22:21.033Z,6.30
2022-11-02T23:25:19.990Z,6.00
2022-11-02T23:28:16.621Z,5.60
2022-11-02T23:31:02.932Z,5.13
2022-11-02T23:33:31.897Z,4.53
2022-11-02T23:36:15.331Z,5.25
2022-11-02T23:39:06.498Z,5.95
2022-11-02T23:41:35.192Z,5.18
2022-11-02T23:44:14.440Z,4.85
2022-11-02T23:46:42.764Z,3.88
2022-11-02T23:49:10.252Z,4.43
2022-11-02T23:51:55.565Z,4.15
2022-11-02T23:54:43.202Z,4.03
2022-11-02T23:57:09.841Z,3.50
2022-11-02T23:59:36.514Z,4.22
